Aérodrome :
LOGIN :

S'inscrire | Disclaimer

   EN    FR    IT 

 










Légende :    VFR   VFR Marginal   IFR   IFR Intensif   IFR Très Intensif
Visi : 
Plafond : 
>= 8 km
>= 3000ft
5 à 8 km
1000 à 3000 ft
1500m à 5 km
500 à 1000 ft
800 à 1500m
200 à 500 ft
< 800m
< 200 ft
Symboles :   Orages  Brouillard  Fortes neiges  Fortes précipitations  Vent > 20 kt
SIGMETs :   Divers  Orages  Givrage  Turbulence  Onde Orograph.  Cendres Volcan.






- Altitude de l'aérodrome : 393 ft
- Code IATA : TYF


ESST - Torsby

DERNIER METAR :
  • 070950Z 26008KT 230V290 9999 -RA BKN033 OVC045 12/09 Q1001

METARs EXPIRÉS :
  • 070920Z 20011G23KT 160V230 9999 -DZ FEW031 SCT040 BKN051 13/08 Q1000 REDZ
  • 070850Z 18007KT 160V220 9999 BKN037 OVC062 13/08 Q1000
  • 070750Z AUTO 17010KT 130V210 9999 FEW033/// OVC057/// 13/08 Q0999
  • 070720Z AUTO 18011KT 140V220 9999 BKN033/// OVC051/// 12/08 Q0999

TAF N/A



MET'MAP, la Météo Aéronautique d'un coup d'oeil ! - Copyright ORBIFLY Décembre 2007 - Disclaimer

ORBIFLY MET'MAP TEAM :

Programmation & Développement : Alexandra Zaïnal
Sur une idée originale de : Baudouin d'Aumeries
Assistance à la programmation : Marc-Olivier Méhu
Soutien technique & logistique : Manuel Goepfert

Contact : metmap@orbifly.com




SOURCES & CREDITS :

   NOAA